Al Mukalla, Yemen
Current Conditions -  °F | °C
As of 11:00 AM on Tuesday 27 Jan 2015 (Local Time) from OYRN Reporting Station
Few Clouds Few Clouds  
Wind Chill: 81°   Ceiling: Unl
Heat Index: 81°   Visibility: 6mi
Dew Point: 61°   Wind: 12mph
Humidity: 51%   Direction: 110°ESE
Pressure: 30.12"   Gusts: NA
Location:  14.54°N, 49.13°E
Report Text: OYRN 270800Z 11010KT 9999 FEW018 27/16 Q1020
Loading
Personal Weather Stations






























Interactive Weather Map New forecast layout! Learn more

10-Day Weather Forecast

Advertisements
Track Severe Weather on mobile